Darstellungsparameter: Aktuell verwendete Einstellungen:
Skalierung der Graphiken ... ?
xyx+y,   Skalierungsfaktor:      Skalierung: Modus: x, Faktor: 1
Darstellungszeitraum ... ?
Vom - - bis: - -   Zeitraum: 23.02.2004 - 23.02.2004
Min/Max/Avg-Anzeige ... ?
Zeige MMA aktuell
Zeige MMA Monat
Zeige MMA alles
Zeige --A aktuell
Zeige --A Monat
Zeige --A alles
Keine MMA-Anzeige
MMA:
Minimum Maximum Average (ber die Originaldaten)
MMA-Basis: 23.02.2003 - 30.09.2000
Quicknavigation für Darstellung... ?
Tage:      1T, 2T, 3T, 5T -1T -2T -3T -5T +1T +2T +3T +5T
Wochen: 1W, 2W, 3W -1W -2W -3W +1W +2W +3W
Monate: 1M, 3M, 6M -1M -3M -6M +1M +3M +6M
Jahre:    1J, 3J, 5J, 10J -1J -3J -5J -10J +1J +3J +5J +10J
Nutze für die Darstellung ... ?
Originaldaten oder Mittelwerte auf ...
Stundenbasis Tagesbasis Wochenbasis
Monatsbasis Jahresbasis      Datenbasis: Original-Daten
Darstellen als:
Statistik (Auto) Statistik J:M      Darstellung:
Zur Graphik,    zurück zur Übersicht aller Sensoren.
 
Tabellarische Datenbersicht: ?
 
Sensor: Nr:Datum:Temp:Abs-Feuchte:Windchill:Wind:
Aussen-T/F 1 23-02-2004 00:10:00 0.8 C 2.76 g/m*3 0.8 C 0 km/h
2 23-02-2004 00:22:59 0.8 C 2.82 g/m*3 0.8 C 0 km/h
3 23-02-2004 00:34:57 0.6 C 2.83 g/m*3 0.6 C 0 km/h
4 23-02-2004 00:46:01 0.4 C 2.79 g/m*3 0.4 C 0 km/h
5 23-02-2004 00:58:01 0.3 C 2.82 g/m*3 0.3 C 0 km/h
6 23-02-2004 01:10:01 0.2 C 2.85 g/m*3 0.2 C 0 km/h
7 23-02-2004 01:22:01 0 C 2.91 g/m*3 0 C 0 km/h
8 23-02-2004 01:34:01 -0.3 C 2.89 g/m*3 -0.3 C 0 km/h
9 23-02-2004 01:46:00 -0.4 C 2.87 g/m*3 -0.4 C 0 km/h
10 23-02-2004 01:58:00 -0.3 C 2.94 g/m*3 -0.3 C 0 km/h
11 23-02-2004 02:09:59 -0.3 C 2.94 g/m*3 -0.3 C 0 km/h
12 23-02-2004 02:22:58 -0.6 C 2.93 g/m*3 -0.6 C 0 km/h
13 23-02-2004 02:34:57 -0.9 C 2.87 g/m*3 -0.9 C 0 km/h
14 23-02-2004 02:47:02 -0.9 C 2.96 g/m*3 -0.9 C 0 km/h
15 23-02-2004 02:59:02 -1 C 2.98 g/m*3 -1 C 0 km/h
16 23-02-2004 03:11:02 -1.1 C 3.01 g/m*3 -1.1 C 0 km/h
17 23-02-2004 03:23:02 -1.1 C 3.01 g/m*3 -1.1 C 0 km/h
18 23-02-2004 03:35:00 -1.5 C 2.92 g/m*3 -1.5 C 0 km/h
19 23-02-2004 03:47:00 -1.7 C 2.97 g/m*3 -1.7 C 0 km/h
20 23-02-2004 03:59:00 -1.9 C 2.97 g/m*3 -1.9 C 0 km/h
21 23-02-2004 04:11:00 -1.6 C 3.08 g/m*3 -1.6 C 0 km/h
22 23-02-2004 04:23:59 -1.4 C 3.08 g/m*3 -1.4 C 0 km/h
23 23-02-2004 04:35:57 -1.4 C 3.08 g/m*3 -1.4 C 0 km/h
24 23-02-2004 04:47:01 -1.4 C 3.08 g/m*3 -1.4 C 0 km/h
25 23-02-2004 04:59:01 -1.4 C 3.03 g/m*3 -1.4 C 0 km/h
Sensor: Nr:Datum:Temp:Abs-Feuchte:Windchill:Wind:
Aussen-T/F 26 23-02-2004 05:11:01 -1.4 C 3.08 g/m*3 -1.4 C 0 km/h
27 23-02-2004 05:23:01 -1 C 3.12 g/m*3 -1 C 0 km/h
28 23-02-2004 05:35:01 -0.9 C 3.1 g/m*3 -0.9 C 0 km/h
29 23-02-2004 05:47:00 -0.9 C 3.05 g/m*3 -0.9 C 0 km/h
30 23-02-2004 05:59:00 -0.9 C 3.05 g/m*3 -0.9 C 0 km/h
31 23-02-2004 06:11:00 -0.8 C 3.12 g/m*3 -0.8 C 0 km/h
32 23-02-2004 06:23:58 -0.7 C 3.09 g/m*3 -0.7 C 0 km/h
33 23-02-2004 06:35:57 -0.7 C 3.14 g/m*3 -0.7 C 0 km/h
34 23-02-2004 06:47:01 -0.7 C 3.14 g/m*3 -0.7 C 0 km/h
35 23-02-2004 06:59:01 -0.6 C 3.16 g/m*3 -0.6 C 0 km/h
36 23-02-2004 07:11:01 -0.6 C 3.16 g/m*3 -0.6 C 0 km/h
37 23-02-2004 07:23:01 -0.6 C 3.16 g/m*3 -0.6 C 0 km/h
38 23-02-2004 07:35:01 -0.5 C 3.18 g/m*3 -0.5 C 0 km/h
39 23-02-2004 07:47:01 -0.4 C 3.2 g/m*3 -0.4 C 0 km/h
40 23-02-2004 07:59:01 -0.4 C 3.2 g/m*3 -0.4 C 0 km/h
41 23-02-2004 08:11:01 -0.3 C 3.23 g/m*3 -0.3 C 0 km/h
42 23-02-2004 08:23:01 -0.3 C 3.23 g/m*3 -0.3 C 0 km/h
43 23-02-2004 08:35:01 -0.3 C 3.23 g/m*3 -0.3 C 0 km/h
44 23-02-2004 08:47:00 -0.4 C 3.25 g/m*3 -0.4 C 0 km/h
45 23-02-2004 08:59:00 -0.1 C 3.32 g/m*3 -0.1 C 0 km/h
46 23-02-2004 09:11:00 0.2 C 3.34 g/m*3 0.2 C 0 km/h
47 23-02-2004 09:23:59 0.5 C 3.31 g/m*3 0.5 C 0 km/h
48 23-02-2004 09:35:57 0.7 C 3.3 g/m*3 0.7 C 0 km/h
49 23-02-2004 09:47:23 0.8 C 3.33 g/m*3 0.8 C 0 km/h
50 23-02-2004 09:59:02 1.1 C 3.29 g/m*3 1.1 C 0 km/h
Sensor: Nr:Datum:Temp:Abs-Feuchte:Windchill:Wind:
Aussen-T/F 51 23-02-2004 10:02:24 0.8 C 3.28 g/m*3 0.8 C 0 km/h
52 23-02-2004 10:05:01 0.8 C 3.28 g/m*3 0.8 C 0 km/h
53 23-02-2004 10:14:01 1 C 3.27 g/m*3 1 C 0 km/h
54 23-02-2004 10:26:01 1 C 3.27 g/m*3 1 C 0 km/h
55 23-02-2004 10:38:01 1 C 3.27 g/m*3 1 C 0 km/h
56 23-02-2004 10:50:01 1.3 C 3.34 g/m*3 1.3 C 0 km/h
57 23-02-2004 11:13:59 1.4 C 3.31 g/m*3 1.4 C 0 km/h
58 23-02-2004 11:14:58 1.5 C 3.22 g/m*3 1.5 C 0 km/h
59 23-02-2004 11:26:58 1.9 C 3.15 g/m*3 1.9 C 0 km/h
60 23-02-2004 11:38:57 1.9 C 3.2 g/m*3 1.9 C 0 km/h
61 23-02-2004 11:50:01 2.5 C 3.22 g/m*3 2.5 C 0 km/h
62 23-02-2004 12:02:01 2.2 C 3.15 g/m*3 2.2 C 0 km/h
63 23-02-2004 12:14:01 2.6 C 3.3 g/m*3 2.6 C 0 km/h
64 23-02-2004 12:26:01 2.8 C 3.23 g/m*3 2.8 C 0 km/h
65 23-02-2004 12:38:01 3 C 3.03 g/m*3 3 C 0 km/h
66 23-02-2004 12:50:01 3.8 C 3.01 g/m*3 3.8 C 0 km/h
67 23-02-2004 13:02:01 3.7 C 2.8 g/m*3 3.7 C 0 km/h
68 23-02-2004 13:14:01 4.1 C 2.82 g/m*3 4.1 C 0 km/h
69 23-02-2004 13:26:01 4.3 C 2.79 g/m*3 4.3 C 0 km/h
70 23-02-2004 13:38:01 4.6 C 2.78 g/m*3 4.6 C 0 km/h
71 23-02-2004 13:50:00 5 C 2.65 g/m*3 5 C 0 km/h
72 23-02-2004 14:02:00 3.6 C 2.85 g/m*3 3.6 C 0 km/h
73 23-02-2004 14:14:00 1.7 C 3.27 g/m*3 1.7 C 0 km/h
74 23-02-2004 14:26:59 2.1 C 3.19 g/m*3 2.1 C 0 km/h
75 23-02-2004 14:38:57 3 C 3.09 g/m*3 3 C 0 km/h
Sensor: Nr:Datum:Temp:Abs-Feuchte:Windchill:Wind:
Aussen-T/F 76 23-02-2004 14:50:01 3.3 C 3.22 g/m*3 3.3 C 0 km/h
77 23-02-2004 15:02:01 4.2 C 3.22 g/m*3 4.2 C 0 km/h
78 23-02-2004 15:14:01 4.9 C 3.17 g/m*3 4.9 C 0 km/h
79 23-02-2004 15:26:01 3.6 C 2.91 g/m*3 3.6 C 0 km/h
80 23-02-2004 15:38:01 2.9 C 3.01 g/m*3 2.9 C 0 km/h
81 23-02-2004 15:50:01 2.7 C 2.85 g/m*3 2.7 C 0 km/h
82 23-02-2004 16:02:59 3.1 C 2.69 g/m*3 3.1 C 0 km/h
83 23-02-2004 16:13:59 3.6 C 2.6 g/m*3 3.6 C 0 km/h
84 23-02-2004 16:26:58 3.2 C 2.29 g/m*3 3.2 C 0 km/h
85 23-02-2004 16:38:57 3.5 C 2.28 g/m*3 3.5 C 0 km/h
86 23-02-2004 16:50:01 3.8 C 2.2 g/m*3 3.8 C 0 km/h
87 23-02-2004 17:02:01 3.8 C 2.2 g/m*3 3.8 C 0 km/h
88 23-02-2004 17:14:01 3.7 C 2.18 g/m*3 3.7 C 0 km/h
89 23-02-2004 17:26:01 3.2 C 2.23 g/m*3 3.2 C 0 km/h
90 23-02-2004 17:38:01 2.6 C 2.31 g/m*3 2.6 C 0 km/h
91 23-02-2004 17:50:01 2.4 C 2.4 g/m*3 2.4 C 0 km/h
92 23-02-2004 18:02:01 2.3 C 2.55 g/m*3 2.3 C 0 km/h
93 23-02-2004 18:14:01 2 C 2.78 g/m*3 2 C 0 km/h
94 23-02-2004 18:26:01 1.5 C 2.9 g/m*3 1.5 C 0 km/h
95 23-02-2004 18:38:01 1 C 2.91 g/m*3 1 C 0 km/h
96 23-02-2004 18:50:00 0.6 C 2.98 g/m*3 0.6 C 0 km/h
97 23-02-2004 19:02:00 0.2 C 2.95 g/m*3 0.2 C 0 km/h
98 23-02-2004 19:14:00 0.2 C 2.9 g/m*3 0.2 C 0 km/h
99 23-02-2004 19:26:59 -0.2 C 2.87 g/m*3 -0.2 C 0 km/h
100 23-02-2004 19:38:58 -0.5 C 2.86 g/m*3 -0.5 C 0 km/h
Sensor: Nr:Datum:Temp:Abs-Feuchte:Windchill:Wind:
Aussen-T/F 101 23-02-2004 19:50:01 -0.5 C 2.86 g/m*3 -0.5 C 0 km/h
102 23-02-2004 20:02:01 -0.8 C 2.84 g/m*3 -0.8 C 0 km/h
103 23-02-2004 20:14:01 -0.9 C 2.91 g/m*3 -0.9 C 0 km/h
104 23-02-2004 20:26:01 -1 C 2.94 g/m*3 -1 C 0 km/h
105 23-02-2004 20:38:01 -1.3 C 2.88 g/m*3 -1.3 C 0 km/h
106 23-02-2004 20:50:00 -1.3 C 2.97 g/m*3 -1.3 C 0 km/h
107 23-02-2004 21:02:00 -1.6 C 2.9 g/m*3 -1.6 C 0 km/h
108 23-02-2004 21:14:00 -1.8 C 2.86 g/m*3 -1.8 C 0 km/h
109 23-02-2004 21:26:59 -2 C 2.82 g/m*3 -2 C 0 km/h
110 23-02-2004 21:38:57 -2.1 C 2.85 g/m*3 -2.1 C 0 km/h
111 23-02-2004 21:50:01 -2.3 C 2.81 g/m*3 -2.3 C 0 km/h
112 23-02-2004 22:02:01 -2.3 C 2.85 g/m*3 -2.3 C 0 km/h
113 23-02-2004 22:14:01 -2.4 C 2.83 g/m*3 -2.4 C 0 km/h
114 23-02-2004 22:26:01 -2.4 C 2.83 g/m*3 -2.4 C 0 km/h
115 23-02-2004 22:38:01 -2.6 C 2.83 g/m*3 -2.6 C 0 km/h
116 23-02-2004 22:50:00 -2.6 C 2.83 g/m*3 -2.6 C 0 km/h
117 23-02-2004 23:02:59 -2.7 C 2.85 g/m*3 -2.7 C 0 km/h
118 23-02-2004 23:14:58 -3 C 2.79 g/m*3 -3 C 0 km/h
119 23-02-2004 23:26:58 -2.9 C 2.85 g/m*3 -2.9 C 0 km/h
120 23-02-2004 23:38:57 -2.9 C 2.85 g/m*3 -2.9 C 0 km/h
121 23-02-2004 23:50:01 -3 C 2.87 g/m*3 -3 C 0 km/h

Legende:
   Min
   Max


Maximal/Minimal-Werte vom 23.02.2003 - 30.09.2000

Sensor Min Max Avg
Temp
(Aussen-T/F)
°C
-- 
°C 0 °C

Die Daten stammen von einer Davis Vantage Pro 2 Wetter-Station und werden unter Linux mit der Software wview2wettercgi und aufbereitet. Alle Angaben erfolgen ohne Gewähr für ihre Vollständigkeit oder Richtigkeit.
Kontakt: Rainer Krienke krienke@uni-koblenz.de . Meine Webseiten an der Uni Koblenz oder privat.
Version: $Revision: 0.78 $